createdAt,value
2023-03-03T00:01:16.337Z,12.83
2023-03-03T00:03:44.804Z,13.63
2023-03-03T00:06:15.280Z,13.23
2023-03-03T00:08:43.461Z,13.33
2023-03-03T00:11:11.713Z,13.40
2023-03-03T00:13:46.379Z,13.70
2023-03-03T00:16:20.962Z,13.00
2023-03-03T00:18:49.511Z,14.10
2023-03-03T00:21:31.549Z,14.53
2023-03-03T00:24:15.734Z,13.73
2023-03-03T00:26:46.808Z,13.80
2023-03-03T00:29:30.893Z,13.57
2023-03-03T00:32:13.582Z,14.93
2023-03-03T00:34:42.456Z,15.13
2023-03-03T00:37:26.203Z,13.83
2023-03-03T00:39:54.336Z,14.80
2023-03-03T00:42:23.436Z,14.03
2023-03-03T00:44:58.073Z,16.00
2023-03-03T00:47:31.460Z,15.47
2023-03-03T00:50:22.510Z,15.27
2023-03-03T00:53:11.971Z,13.87
2023-03-03T00:55:40.439Z,13.37
2023-03-03T00:58:08.863Z,14.50
2023-03-03T01:00:37.837Z,13.70
2023-03-03T01:03:07.475Z,14.23
2023-03-03T01:05:35.588Z,14.53
2023-03-03T01:08:05.932Z,14.13
2023-03-03T01:10:37.321Z,14.83
2023-03-03T01:13:06.208Z,13.63
2023-03-03T01:15:34.596Z,13.30
2023-03-03T01:18:02.890Z,13.23
2023-03-03T01:20:30.888Z,13.60
2023-03-03T01:22:58.772Z,13.60
2023-03-03T01:25:28.349Z,13.00
2023-03-03T01:27:56.247Z,13.63
2023-03-03T01:30:24.781Z,13.97
2023-03-03T01:32:53.227Z,12.70
2023-03-03T01:35:21.643Z,14.03
2023-03-03T01:37:49.677Z,13.57
2023-03-03T01:40:20.468Z,14.17
2023-03-03T01:42:50.039Z,13.20
2023-03-03T01:45:21.093Z,14.63
2023-03-03T01:47:57.689Z,14.20
2023-03-03T01:50:33.958Z,13.50
2023-03-03T01:53:05.366Z,13.93
2023-03-03T01:55:37.211Z,14.33
2023-03-03T01:58:09.633Z,12.80
2023-03-03T02:00:42.003Z,12.97
2023-03-03T02:03:10.950Z,14.73
2023-03-03T02:05:40.680Z,14.37
2023-03-03T02:08:09.905Z,14.07
2023-03-03T02:10:38.415Z,13.03
2023-03-03T02:13:08.268Z,13.20
2023-03-03T02:15:36.865Z,13.47
2023-03-03T02:18:07.341Z,14.63
2023-03-03T02:20:45.956Z,13.57
2023-03-03T02:23:22.074Z,14.20
2023-03-03T02:26:04.327Z,14.50
2023-03-03T02:28:34.792Z,13.10
2023-03-03T02:31:03.629Z,13.80
2023-03-03T02:33:31.533Z,14.23
2023-03-03T02:35:59.576Z,13.83
2023-03-03T02:38:35.008Z,14.07
2023-03-03T02:41:13.706Z,14.13
2023-03-03T02:43:50.982Z,13.10
2023-03-03T02:46:19.218Z,13.20
2023-03-03T02:48:47.277Z,13.67
2023-03-03T02:51:15.173Z,14.00
2023-03-03T02:53:43.245Z,14.70
2023-03-03T02:56:12.508Z,14.83
2023-03-03T02:58:40.431Z,12.90
2023-03-03T03:01:08.658Z,14.10
2023-03-03T03:03:36.955Z,14.47
2023-03-03T03:06:05.292Z,14.13
2023-03-03T03:08:33.151Z,12.83
2023-03-03T03:11:01.037Z,13.43
2023-03-03T03:13:30.396Z,12.37
2023-03-03T03:15:58.328Z,13.30
2023-03-03T03:18:26.454Z,13.30
2023-03-03T03:20:54.330Z,13.73
2023-03-03T03:23:22.800Z,13.43
2023-03-03T03:25:50.689Z,12.73
2023-03-03T03:28:19.797Z,12.77
2023-03-03T03:30:49.184Z,13.13
2023-03-03T03:33:17.370Z,13.83
2023-03-03T03:35:47.777Z,13.87
2023-03-03T03:38:16.070Z,13.83
2023-03-03T03:40:44.488Z,13.23
2023-03-03T03:43:12.525Z,13.97
2023-03-03T03:45:40.743Z,13.17
2023-03-03T03:48:10.485Z,13.63
2023-03-03T03:50:38.663Z,13.30
2023-03-03T03:53:06.836Z,13.37
2023-03-03T03:55:35.233Z,13.57
2023-03-03T03:58:03.175Z,13.83
2023-03-03T04:00:31.151Z,14.20
2023-03-03T04:02:59.572Z,14.37
2023-03-03T04:05:29.208Z,13.43
2023-03-03T04:07:57.127Z,14.13
2023-03-03T04:10:25.172Z,14.00
2023-03-03T04:12:53.099Z,13.53
2023-03-03T04:15:21.111Z,14.93
2023-03-03T04:17:49.111Z,13.57
2023-03-03T04:20:17.594Z,14.50
2023-03-03T04:22:46.875Z,13.57
2023-03-03T04:25:17.214Z,14.73
2023-03-03T04:27:45.682Z,14.87
2023-03-03T04:30:16.173Z,13.70
2023-03-03T04:32:44.552Z,13.90
2023-03-03T04:35:12.998Z,13.17
2023-03-03T04:37:41.224Z,12.77
2023-03-03T04:40:11.962Z,13.27
2023-03-03T04:42:40.230Z,13.67
2023-03-03T04:45:09.499Z,14.43
2023-03-03T04:47:37.551Z,13.77
2023-03-03T04:50:06.429Z,13.70
2023-03-03T04:52:34.617Z,14.57
2023-03-03T04:55:02.501Z,14.33
2023-03-03T04:57:32.190Z,12.97
2023-03-03T05:00:00.114Z,14.07
2023-03-03T05:02:28.056Z,14.43
2023-03-03T05:04:56.235Z,14.37
2023-03-03T05:07:24.689Z,13.33
2023-03-03T05:09:52.756Z,13.90
2023-03-03T05:12:21.238Z,13.27
2023-03-03T05:14:50.475Z,13.90
2023-03-03T05:17:18.829Z,13.60
2023-03-03T05:19:46.741Z,13.87
2023-03-03T05:22:14.644Z,14.37
2023-03-03T05:24:43.928Z,14.50
2023-03-03T05:27:11.882Z,14.17
2023-03-03T05:29:39.917Z,13.93
2023-03-03T05:32:09.603Z,15.40
2023-03-03T05:34:37.849Z,14.40
2023-03-03T05:37:06.779Z,14.17
2023-03-03T05:39:35.099Z,15.93
2023-03-03T05:42:03.379Z,15.87
2023-03-03T05:44:31.291Z,16.60
2023-03-03T05:46:59.485Z,15.43
2023-03-03T05:49:29.245Z,16.93
2023-03-03T05:51:57.150Z,15.97
2023-03-03T05:54:25.238Z,15.33
2023-03-03T05:56:53.272Z,16.03
2023-03-03T05:59:24.416Z,14.27
2023-03-03T06:01:52.568Z,13.67
2023-03-03T06:04:20.453Z,13.10
2023-03-03T06:06:49.722Z,13.37
2023-03-03T06:09:19.101Z,14.63
2023-03-03T06:11:46.939Z,13.13
2023-03-03T06:14:14.897Z,14.13
2023-03-03T06:16:42.881Z,13.67
2023-03-03T06:19:10.786Z,16.97
2023-03-03T06:21:38.899Z,14.70
2023-03-03T06:24:08.977Z,14.13
2023-03-03T06:26:36.962Z,13.80
2023-03-03T06:29:05.285Z,14.63
2023-03-03T06:31:33.276Z,15.63
2023-03-03T06:34:01.430Z,14.43
2023-03-03T06:36:29.335Z,13.17
2023-03-03T06:38:57.225Z,15.10
2023-03-03T06:41:26.662Z,14.40
2023-03-03T06:43:54.960Z,13.77
2023-03-03T06:46:22.865Z,14.53
2023-03-03T06:48:50.745Z,15.10
2023-03-03T06:51:28.409Z,14.50
2023-03-03T06:53:58.340Z,14.47
2023-03-03T06:56:28.588Z,14.07
2023-03-03T06:58:59.382Z,15.70
2023-03-03T07:01:28.670Z,14.63
2023-03-03T07:03:56.645Z,15.27
2023-03-03T07:06:28.102Z,14.33
2023-03-03T07:08:57.963Z,15.47
2023-03-03T07:11:27.237Z,15.17
2023-03-03T07:13:56.434Z,15.60
2023-03-03T07:16:28.316Z,16.07
2023-03-03T07:18:58.798Z,15.23
2023-03-03T07:21:32.438Z,15.77
2023-03-03T07:24:02.385Z,21.67
2023-03-03T07:26:33.632Z,30.23
2023-03-03T07:29:05.248Z,17.23
2023-03-03T07:31:37.220Z,16.40
2023-03-03T07:34:19.535Z,16.17
2023-03-03T07:36:47.684Z,16.30
2023-03-03T07:39:29.451Z,16.03
2023-03-03T07:42:10.560Z,16.00
2023-03-03T07:44:39.558Z,16.27
2023-03-03T07:47:20.392Z,16.30
2023-03-03T07:49:49.595Z,16.77
2023-03-03T07:52:26.724Z,16.13
2023-03-03T07:54:55.758Z,16.37
2023-03-03T07:57:27.867Z,15.60
2023-03-03T08:00:01.090Z,15.73
2023-03-03T08:02:42.341Z,14.80
2023-03-03T08:05:31.816Z,16.13
2023-03-03T08:08:29.328Z,16.20
2023-03-03T08:10:59.223Z,15.73
2023-03-03T08:13:38.153Z,15.70
2023-03-03T08:16:29.552Z,16.13
2023-03-03T08:19:03.222Z,15.60
2023-03-03T08:21:31.952Z,17.87
2023-03-03T08:23:59.938Z,18.97
2023-03-03T08:26:28.522Z,17.37
2023-03-03T08:28:58.184Z,17.03
2023-03-03T08:31:40.329Z,17.63
2023-03-03T08:34:09.010Z,16.83
2023-03-03T08:36:37.124Z,16.97
2023-03-03T08:39:05.999Z,17.90
2023-03-03T08:41:34.131Z,17.93
2023-03-03T08:44:03.472Z,17.10
2023-03-03T08:46:31.483Z,18.10
2023-03-03T08:48:59.461Z,19.07
2023-03-03T08:51:27.556Z,19.67
2023-03-03T08:53:55.563Z,17.90
2023-03-03T08:56:23.559Z,18.03
2023-03-03T08:59:02.202Z,19.23
2023-03-03T09:01:32.889Z,18.87
2023-03-03T09:04:01.253Z,20.03
2023-03-03T09:06:29.289Z,20.00
2023-03-03T09:08:57.565Z,19.40
2023-03-03T09:11:27.982Z,19.27
2023-03-03T09:14:03.792Z,18.73
2023-03-03T09:16:38.296Z,20.33
2023-03-03T09:19:20.751Z,20.40
2023-03-03T09:21:48.787Z,19.53
2023-03-03T09:24:25.922Z,19.10
2023-03-03T09:26:54.898Z,18.93
2023-03-03T09:29:29.171Z,19.23
2023-03-03T09:32:00.998Z,19.20
2023-03-03T09:34:40.252Z,18.33
2023-03-03T09:37:21.893Z,19.40
2023-03-03T09:39:51.886Z,19.27
2023-03-03T09:42:56.904Z,18.67
2023-03-03T09:45:48.395Z,18.47
2023-03-03T09:48:30.621Z,19.13
2023-03-03T09:51:09.078Z,18.67
2023-03-03T09:54:13.172Z,18.63
2023-03-03T09:56:45.600Z,18.73
2023-03-03T09:59:34.203Z,18.30
2023-03-03T10:02:24.062Z,18.83
2023-03-03T10:05:10.285Z,18.00
2023-03-03T10:07:51.731Z,18.87
2023-03-03T10:10:32.130Z,17.73
2023-03-03T10:13:14.127Z,17.73
2023-03-03T10:15:55.347Z,16.73
2023-03-03T10:18:33.501Z,16.83
2023-03-03T10:21:10.958Z,20.97
2023-03-03T10:23:57.666Z,17.57
2023-03-03T10:26:45.620Z,17.93
2023-03-03T10:29:30.978Z,17.00
2023-03-03T10:32:37.945Z,18.03
2023-03-03T10:35:20.696Z,16.07
2023-03-03T10:38:03.541Z,17.40
2023-03-03T10:40:37.048Z,17.43
2023-03-03T10:43:31.787Z,16.97
2023-03-03T10:46:38.281Z,17.27
2023-03-03T10:49:27.890Z,16.60
2023-03-03T10:52:16.598Z,16.83
2023-03-03T10:54:58.659Z,16.77
2023-03-03T10:57:35.542Z,17.43
2023-03-03T11:00:20.828Z,16.37
2023-03-03T11:03:05.151Z,16.97
2023-03-03T11:05:41.166Z,17.73
2023-03-03T11:08:15.121Z,17.13
2023-03-03T11:10:56.406Z,16.80
2023-03-03T11:13:32.521Z,16.73
2023-03-03T11:16:12.291Z,16.42
2023-03-03T11:18:53.570Z,17.48
2023-03-03T11:21:27.794Z,17.65
2023-03-03T11:24:13.466Z,18.15
2023-03-03T11:27:12.342Z,16.63
2023-03-03T11:30:12.878Z,20.50
2023-03-03T11:32:50.133Z,17.30
2023-03-03T11:35:24.372Z,17.70
2023-03-03T11:38:04.544Z,17.60
2023-03-03T11:40:41.230Z,16.63
2023-03-03T11:43:26.321Z,16.93
2023-03-03T11:46:07.128Z,16.27
2023-03-03T11:48:40.786Z,16.03
2023-03-03T11:51:14.200Z,16.53
2023-03-03T11:53:52.119Z,15.20
2023-03-03T11:56:25.770Z,15.77
2023-03-03T11:59:13.377Z,15.63
2023-03-03T12:01:50.620Z,15.13
2023-03-03T12:04:23.369Z,15.30
2023-03-03T12:07:18.422Z,14.73
2023-03-03T12:09:56.280Z,14.07
2023-03-03T12:12:26.055Z,14.10
2023-03-03T12:15:20.845Z,14.63
2023-03-03T12:18:18.427Z,15.47
2023-03-03T12:20:53.912Z,15.33
2023-03-03T12:23:43.049Z,15.03
2023-03-03T12:26:17.778Z,15.90
2023-03-03T12:28:53.298Z,15.70
2023-03-03T12:31:41.634Z,15.17
2023-03-03T12:34:15.739Z,14.33
2023-03-03T12:36:55.765Z,14.33
2023-03-03T12:39:40.413Z,15.30
2023-03-03T12:42:17.131Z,14.98
2023-03-03T12:44:51.562Z,14.68
2023-03-03T12:47:27.846Z,14.73
2023-03-03T12:50:08.309Z,14.87
2023-03-03T12:52:45.653Z,15.00
2023-03-03T12:55:22.411Z,15.00
2023-03-03T12:57:56.202Z,14.93
2023-03-03T13:00:38.995Z,14.73
2023-03-03T13:03:15.595Z,14.93
2023-03-03T13:05:55.098Z,15.67
2023-03-03T13:08:32.737Z,14.57
2023-03-03T13:11:17.471Z,15.17
2023-03-03T13:13:54.063Z,14.77
2023-03-03T13:16:40.317Z,15.30
2023-03-03T13:19:15.199Z,14.67
2023-03-03T13:21:50.872Z,15.20
2023-03-03T13:24:24.690Z,14.87
2023-03-03T13:26:57.737Z,15.40
2023-03-03T13:29:31.033Z,16.27
2023-03-03T13:32:04.815Z,15.87
2023-03-03T13:34:43.233Z,15.10
2023-03-03T13:37:20.868Z,16.23
2023-03-03T13:39:58.294Z,14.83
2023-03-03T13:42:32.943Z,14.47
2023-03-03T13:45:04.613Z,13.97
2023-03-03T13:47:42.246Z,14.17
2023-03-03T13:50:23.596Z,13.40
2023-03-03T13:53:03.569Z,13.50
2023-03-03T13:55:36.499Z,13.93
2023-03-03T13:58:12.429Z,14.53
2023-03-03T14:00:49.840Z,14.33
2023-03-03T14:03:53.224Z,14.07
2023-03-03T14:06:25.044Z,13.63
2023-03-03T14:09:21.493Z,13.83
2023-03-03T14:11:57.611Z,11.63
2023-03-03T14:14:40.566Z,11.50
2023-03-03T14:17:16.345Z,12.03
2023-03-03T14:19:48.088Z,12.20
2023-03-03T14:22:24.755Z,12.07
2023-03-03T14:25:00.203Z,12.57
2023-03-03T14:27:35.076Z,17.73
2023-03-03T14:30:26.044Z,11.70
2023-03-03T14:33:01.663Z,12.40
2023-03-03T14:35:33.685Z,11.93
2023-03-03T14:38:11.514Z,12.03
2023-03-03T14:40:42.868Z,13.00
2023-03-03T14:43:23.571Z,10.80
2023-03-03T14:45:54.276Z,11.77
2023-03-03T14:48:24.119Z,12.37
2023-03-03T14:50:53.613Z,11.57
2023-03-03T14:53:35.480Z,11.77
2023-03-03T14:56:23.749Z,12.53
2023-03-03T14:58:52.634Z,11.47
2023-03-03T15:01:30.824Z,12.00
2023-03-03T15:04:03.066Z,11.73
2023-03-03T15:06:45.166Z,11.37
2023-03-03T15:09:29.736Z,10.90
2023-03-03T15:11:59.852Z,12.80
2023-03-03T15:14:33.060Z,11.33
2023-03-03T15:17:20.848Z,12.33
2023-03-03T15:19:55.778Z,11.77
2023-03-03T15:22:47.490Z,11.33
2023-03-03T15:25:43.236Z,12.20
2023-03-03T15:28:26.793Z,11.47
2023-03-03T15:31:02.426Z,11.00
2023-03-03T15:33:38.782Z,11.73
2023-03-03T15:36:17.329Z,11.40
2023-03-03T15:38:56.986Z,11.33
2023-03-03T15:41:45.414Z,11.77
2023-03-03T15:44:20.184Z,12.40
2023-03-03T15:47:09.363Z,11.87
2023-03-03T15:49:56.349Z,12.47
2023-03-03T15:52:36.635Z,12.20
2023-03-03T15:55:25.451Z,12.10
2023-03-03T15:58:11.534Z,12.27
2023-03-03T16:00:55.182Z,11.97
2023-03-03T16:03:29.660Z,12.17
2023-03-03T16:06:02.110Z,12.07
2023-03-03T16:08:40.179Z,13.47
2023-03-03T16:11:12.571Z,11.57
2023-03-03T16:13:54.322Z,10.93
2023-03-03T16:16:33.978Z,12.47
2023-03-03T16:19:14.737Z,11.83
2023-03-03T16:22:20.297Z,12.73
2023-03-03T16:25:04.070Z,12.27
2023-03-03T16:27:37.526Z,12.33
2023-03-03T16:30:24.330Z,12.23
2023-03-03T16:32:54.757Z,11.70
2023-03-03T16:35:28.502Z,11.77
2023-03-03T16:38:00.692Z,13.57
2023-03-03T16:40:32.667Z,15.17
2023-03-03T16:43:12.004Z,22.30
2023-03-03T16:45:42.857Z,13.13
2023-03-03T16:48:22.066Z,11.23
2023-03-03T16:51:01.154Z,10.57
2023-03-03T16:53:51.836Z,11.17
2023-03-03T16:56:23.415Z,10.60
2023-03-03T16:59:08.589Z,10.37
2023-03-03T17:01:50.630Z,10.80
2023-03-03T17:04:33.856Z,12.90
2023-03-03T17:07:09.547Z,12.27
2023-03-03T17:10:04.684Z,12.33
2023-03-03T17:12:51.782Z,13.07
2023-03-03T17:15:39.472Z,13.10
2023-03-03T17:18:15.629Z,13.43
2023-03-03T17:20:49.406Z,12.13
2023-03-03T17:23:44.019Z,12.00
2023-03-03T17:26:26.129Z,11.13
2023-03-03T17:29:09.084Z,12.87
2023-03-03T17:31:46.235Z,14.57
2023-03-03T17:34:29.593Z,13.40
2023-03-03T17:37:06.383Z,12.67
2023-03-03T17:40:12.607Z,12.57
2023-03-03T17:42:47.588Z,12.77
2023-03-03T17:45:17.297Z,14.40
2023-03-03T17:48:19.581Z,14.60
2023-03-03T17:51:11.258Z,12.57
2023-03-03T17:54:03.162Z,16.00
2023-03-03T17:56:34.426Z,15.10
2023-03-03T17:59:37.580Z,16.27
2023-03-03T18:02:34.156Z,17.33
2023-03-03T18:05:19.451Z,23.10
2023-03-03T18:08:05.389Z,20.93
2023-03-03T18:11:04.009Z,18.27
2023-03-03T18:13:53.825Z,17.37
2023-03-03T18:16:34.090Z,17.23
2023-03-03T18:19:21.624Z,18.00
2023-03-03T18:21:55.815Z,15.73
2023-03-03T18:24:38.377Z,14.77
2023-03-03T18:27:31.540Z,14.63
2023-03-03T18:30:33.397Z,14.13
2023-03-03T18:33:10.229Z,13.37
2023-03-03T18:35:40.286Z,18.40
2023-03-03T18:38:39.198Z,17.30
2023-03-03T18:41:12.715Z,15.60
2023-03-03T18:43:59.498Z,16.17
2023-03-03T18:46:55.096Z,16.13
2023-03-03T18:50:05.150Z,15.27
2023-03-03T18:52:35.086Z,15.87
2023-03-03T18:55:19.771Z,15.27
2023-03-03T18:58:17.699Z,14.60
2023-03-03T19:00:50.124Z,14.63
2023-03-03T19:03:28.858Z,14.50
2023-03-03T19:05:59.954Z,15.53
2023-03-03T19:08:29.739Z,14.57
2023-03-03T19:11:02.197Z,14.63
2023-03-03T19:13:42.239Z,15.13
2023-03-03T19:16:12.771Z,15.03
2023-03-03T19:19:02.947Z,13.93
2023-03-03T19:21:36.976Z,14.97
2023-03-03T19:24:06.895Z,15.07
2023-03-03T19:27:13.977Z,15.83
2023-03-03T19:30:12.088Z,14.40
2023-03-03T19:33:22.352Z,14.43
2023-03-03T19:36:02.946Z,14.50
2023-03-03T19:38:38.669Z,14.70
2023-03-03T19:41:22.941Z,14.07
2023-03-03T19:44:02.119Z,13.97
2023-03-03T19:46:47.501Z,14.30
2023-03-03T19:49:29.244Z,14.37
2023-03-03T19:52:05.031Z,14.10
2023-03-03T19:54:57.657Z,15.20
2023-03-03T19:57:38.434Z,15.10
2023-03-03T20:00:15.165Z,15.63
2023-03-03T20:02:55.152Z,14.97
2023-03-03T20:05:32.405Z,15.70
2023-03-03T20:08:06.284Z,16.37
2023-03-03T20:10:44.000Z,18.73
2023-03-03T20:13:29.678Z,17.80
2023-03-03T20:16:08.524Z,15.80
2023-03-03T20:18:59.055Z,14.73
2023-03-03T20:21:35.597Z,14.60
2023-03-03T20:24:22.418Z,18.90
2023-03-03T20:26:58.031Z,23.57
2023-03-03T20:29:56.399Z,20.83
2023-03-03T20:32:33.674Z,19.93
2023-03-03T20:35:14.042Z,19.30
2023-03-03T20:37:50.507Z,19.50
2023-03-03T20:40:30.787Z,35.07
2023-03-03T20:43:06.602Z,22.47
2023-03-03T20:45:48.450Z,16.73
2023-03-03T20:48:29.758Z,16.60
2023-03-03T20:51:06.574Z,16.70
2023-03-03T20:53:45.482Z,17.77
2023-03-03T20:56:19.047Z,17.53
2023-03-03T20:58:59.439Z,16.43
2023-03-03T21:01:35.481Z,17.50
2023-03-03T21:04:19.685Z,17.50
2023-03-03T21:06:48.358Z,17.73
2023-03-03T21:09:29.809Z,17.83
2023-03-03T21:11:59.015Z,40.23
2023-03-03T21:14:28.360Z,24.40
2023-03-03T21:16:58.502Z,17.47
2023-03-03T21:19:30.783Z,15.90
2023-03-03T21:22:01.982Z,16.83
2023-03-03T21:24:50.436Z,16.00
2023-03-03T21:27:30.285Z,16.10
2023-03-03T21:30:08.740Z,15.23
2023-03-03T21:32:39.370Z,15.47
2023-03-03T21:35:09.850Z,16.20
2023-03-03T21:37:47.410Z,15.73
2023-03-03T21:40:20.758Z,16.83
2023-03-03T21:42:48.821Z,14.87
2023-03-03T21:45:20.334Z,16.47
2023-03-03T21:47:48.898Z,16.07
2023-03-03T21:50:17.653Z,14.90
2023-03-03T21:52:45.688Z,14.80
2023-03-03T21:55:13.764Z,15.43
2023-03-03T21:57:43.094Z,15.30
2023-03-03T22:00:12.788Z,15.07
2023-03-03T22:02:40.752Z,15.30
2023-03-03T22:05:09.224Z,15.33
2023-03-03T22:07:37.118Z,15.33
2023-03-03T22:10:07.368Z,15.50
2023-03-03T22:12:35.320Z,14.87
2023-03-03T22:15:04.978Z,14.70
2023-03-03T22:17:33.041Z,14.20
2023-03-03T22:20:00.964Z,15.63
2023-03-03T22:22:28.879Z,16.80
2023-03-03T22:24:56.752Z,15.67
2023-03-03T22:27:24.817Z,16.60
2023-03-03T22:29:52.773Z,15.87
2023-03-03T22:32:22.373Z,15.73
2023-03-03T22:34:50.300Z,15.53
2023-03-03T22:37:18.641Z,16.27
2023-03-03T22:39:46.630Z,16.70
2023-03-03T22:42:14.552Z,14.90
2023-03-03T22:44:45.448Z,16.37
2023-03-03T22:47:13.776Z,15.47
2023-03-03T22:49:43.007Z,14.87
2023-03-03T22:52:10.917Z,14.77
2023-03-03T22:54:39.079Z,14.50
2023-03-03T22:57:07.048Z,14.83
2023-03-03T22:59:34.983Z,15.73
2023-03-03T23:02:03.043Z,15.50
2023-03-03T23:04:32.969Z,14.40
2023-03-03T23:07:02.621Z,15.30
2023-03-03T23:09:30.456Z,15.83
2023-03-03T23:11:58.373Z,15.50
2023-03-03T23:14:26.409Z,14.80
2023-03-03T23:16:54.313Z,15.20
2023-03-03T23:19:22.177Z,15.77
2023-03-03T23:21:50.307Z,15.17
2023-03-03T23:24:19.575Z,14.57
2023-03-03T23:26:47.533Z,15.60
2023-03-03T23:29:15.458Z,14.43
2023-03-03T23:31:43.416Z,14.27
2023-03-03T23:34:11.356Z,13.83
2023-03-03T23:36:39.346Z,14.80
2023-03-03T23:39:07.282Z,14.47
2023-03-03T23:41:38.514Z,15.20
2023-03-03T23:44:06.787Z,14.40
2023-03-03T23:46:34.720Z,14.97
2023-03-03T23:49:02.596Z,15.67
2023-03-03T23:51:30.597Z,16.40
2023-03-03T23:53:58.505Z,14.43
2023-03-03T23:56:26.466Z,17.43
2023-03-03T23:58:55.778Z,15.63
